createdAt,value
2023-06-19T00:01:10.001Z,23.40
2023-06-19T00:03:36.978Z,23.40
2023-06-19T00:06:04.089Z,23.40
2023-06-19T00:08:31.619Z,23.40
2023-06-19T00:10:58.697Z,23.40
2023-06-19T00:13:25.626Z,23.40
2023-06-19T00:15:52.673Z,23.40
2023-06-19T00:18:20.976Z,23.40
2023-06-19T00:20:48.028Z,23.30
2023-06-19T00:23:18.047Z,23.20
2023-06-19T00:25:45.750Z,23.20
2023-06-19T00:28:15.969Z,23.10
2023-06-19T00:30:43.421Z,23.10
2023-06-19T00:33:10.437Z,23.10
2023-06-19T00:35:37.694Z,23.00
2023-06-19T00:38:07.174Z,23.10
2023-06-19T00:40:35.060Z,23.00
2023-06-19T00:43:02.327Z,23.00
2023-06-19T00:45:29.420Z,23.00
2023-06-19T00:47:57.813Z,22.90
2023-06-19T00:50:25.669Z,22.80
2023-06-19T00:52:52.958Z,22.70
2023-06-19T00:55:20.416Z,22.60
2023-06-19T00:57:47.604Z,22.60
2023-06-19T01:00:14.966Z,22.50
2023-06-19T01:02:42.010Z,22.50
2023-06-19T01:05:09.085Z,22.50
2023-06-19T01:08:02.583Z,22.40
2023-06-19T01:10:42.966Z,22.40
2023-06-19T01:13:13.499Z,22.30
2023-06-19T01:15:42.989Z,22.20
2023-06-19T01:18:12.664Z,22.10
2023-06-19T01:20:39.925Z,22.10
2023-06-19T01:23:10.880Z,22.00
2023-06-19T01:25:37.918Z,21.90
2023-06-19T01:28:10.574Z,21.80
2023-06-19T01:30:39.096Z,21.80
2023-06-19T01:33:21.760Z,21.80
2023-06-19T01:35:50.268Z,21.80
2023-06-19T01:38:18.341Z,21.80
2023-06-19T01:40:46.593Z,21.80
2023-06-19T01:43:13.849Z,21.80
2023-06-19T01:45:41.029Z,21.70
2023-06-19T01:48:09.664Z,21.70
2023-06-19T01:50:36.592Z,21.70
2023-06-19T01:53:03.501Z,21.70
2023-06-19T01:55:30.487Z,21.70
2023-06-19T01:57:58.470Z,21.70
2023-06-19T02:00:25.568Z,21.60
2023-06-19T02:02:52.707Z,21.60
2023-06-19T02:05:20.175Z,21.60
2023-06-19T02:07:47.116Z,21.50
2023-06-19T02:10:14.037Z,21.50
2023-06-19T02:12:40.961Z,21.40
2023-06-19T02:15:09.924Z,21.40
2023-06-19T02:17:36.878Z,21.40
2023-06-19T02:20:06.837Z,21.50
2023-06-19T02:22:33.920Z,21.60
2023-06-19T02:25:01.103Z,21.70
2023-06-19T02:27:28.033Z,21.70
2023-06-19T02:29:54.928Z,21.70
2023-06-19T02:32:22.235Z,21.70
2023-06-19T02:34:50.312Z,21.80
2023-06-19T02:37:17.242Z,21.80
2023-06-19T02:39:44.193Z,21.80
2023-06-19T02:42:13.890Z,21.80
2023-06-19T02:44:41.401Z,21.80
2023-06-19T02:47:08.571Z,21.80
2023-06-19T02:49:35.454Z,21.80
2023-06-19T02:52:02.340Z,21.80
2023-06-19T02:54:32.481Z,21.70
2023-06-19T02:57:00.628Z,21.80
2023-06-19T02:59:29.210Z,21.80
2023-06-19T03:01:56.142Z,21.70
2023-06-19T03:04:24.984Z,21.70
2023-06-19T03:06:54.967Z,21.70
2023-06-19T03:09:22.338Z,21.60
2023-06-19T03:11:49.200Z,21.70
2023-06-19T03:14:16.162Z,21.60
2023-06-19T03:16:43.132Z,21.60
2023-06-19T03:19:13.541Z,21.60
2023-06-19T03:21:40.433Z,21.60
2023-06-19T03:24:08.032Z,21.60
2023-06-19T03:26:35.059Z,21.60
2023-06-19T03:29:01.918Z,21.60
2023-06-19T03:31:29.594Z,21.60
2023-06-19T03:33:58.232Z,21.60
2023-06-19T03:36:25.400Z,21.50
2023-06-19T03:38:55.068Z,21.50
2023-06-19T03:41:22.022Z,21.40
2023-06-19T03:43:49.224Z,21.40
2023-06-19T03:46:18.418Z,21.40
2023-06-19T03:48:46.678Z,21.40
2023-06-19T03:51:14.185Z,21.40
2023-06-19T03:53:41.045Z,21.40
2023-06-19T03:56:08.449Z,21.40
2023-06-19T03:58:35.338Z,21.40
2023-06-19T04:01:02.247Z,21.40
2023-06-19T04:03:29.483Z,21.50
2023-06-19T04:05:58.222Z,21.40
2023-06-19T04:08:29.022Z,21.50
2023-06-19T04:10:58.278Z,21.40
2023-06-19T04:13:27.107Z,21.50
2023-06-19T04:15:54.118Z,21.50
2023-06-19T04:18:21.009Z,21.70
2023-06-19T04:20:48.062Z,21.70
2023-06-19T04:23:16.056Z,21.90
2023-06-19T04:25:42.915Z,22.10
2023-06-19T04:28:09.793Z,22.40
2023-06-19T04:30:36.787Z,22.70
2023-06-19T04:33:03.887Z,22.90
2023-06-19T04:35:30.833Z,23.20
2023-06-19T04:38:02.326Z,23.50
2023-06-19T04:40:29.327Z,23.80
2023-06-19T04:42:56.212Z,24.00
2023-06-19T04:45:23.371Z,24.30
2023-06-19T04:47:53.928Z,24.50
2023-06-19T04:50:25.426Z,24.60
2023-06-19T04:52:53.164Z,24.80
2023-06-19T04:55:20.138Z,25.10
2023-06-19T04:57:47.027Z,25.00
2023-06-19T05:00:17.563Z,25.10
2023-06-19T05:02:46.063Z,24.90
2023-06-19T05:05:13.050Z,24.80
2023-06-19T05:07:40.631Z,25.00
2023-06-19T05:10:09.496Z,25.30
2023-06-19T05:12:38.574Z,25.30
2023-06-19T05:15:07.838Z,25.60
2023-06-19T05:17:34.926Z,25.60
2023-06-19T05:20:01.868Z,25.50
2023-06-19T05:22:29.895Z,25.50
2023-06-19T05:24:56.977Z,25.80
2023-06-19T05:27:24.268Z,26.30
2023-06-19T05:29:52.563Z,26.70
2023-06-19T05:32:19.749Z,26.40
2023-06-19T05:34:46.736Z,26.50
2023-06-19T05:37:13.616Z,26.20
2023-06-19T05:39:40.808Z,26.00
2023-06-19T05:42:08.236Z,26.30
2023-06-19T05:44:35.301Z,26.70
2023-06-19T05:47:02.164Z,26.80
2023-06-19T05:49:29.044Z,26.70
2023-06-19T05:52:00.293Z,26.90
2023-06-19T05:54:27.573Z,27.10
2023-06-19T05:56:54.691Z,27.00
2023-06-19T05:59:23.254Z,27.10
2023-06-19T06:01:51.998Z,26.90
2023-06-19T06:04:19.749Z,27.20
2023-06-19T06:06:47.028Z,27.70
2023-06-19T06:09:14.360Z,27.70
2023-06-19T06:11:41.363Z,27.50
2023-06-19T06:14:09.286Z,27.60
2023-06-19T06:16:38.987Z,27.60
2023-06-19T06:19:07.382Z,27.60
2023-06-19T06:21:35.873Z,27.90
2023-06-19T06:24:05.137Z,27.80
2023-06-19T06:26:33.937Z,28.30
2023-06-19T06:29:01.428Z,28.50
2023-06-19T06:31:29.625Z,28.40
2023-06-19T06:33:56.590Z,28.50
2023-06-19T06:36:35.625Z,28.30
2023-06-19T06:39:03.720Z,28.60
2023-06-19T06:41:30.877Z,28.50
2023-06-19T06:43:57.811Z,28.40
2023-06-19T06:46:24.882Z,28.40
2023-06-19T06:48:52.034Z,28.30
2023-06-19T06:51:19.089Z,28.80
2023-06-19T06:53:46.198Z,28.80
2023-06-19T06:56:13.252Z,28.40
2023-06-19T06:58:40.456Z,28.60
2023-06-19T07:01:07.887Z,28.60
2023-06-19T07:03:36.223Z,28.40
2023-06-19T07:06:03.987Z,27.50
2023-06-19T07:08:30.958Z,27.10
2023-06-19T07:10:57.951Z,26.60
2023-06-19T07:13:25.694Z,26.30
2023-06-19T07:15:52.601Z,25.70
2023-06-19T07:18:19.647Z,25.40
2023-06-19T07:20:46.685Z,25.60
2023-06-19T07:23:13.722Z,25.90
2023-06-19T07:25:40.609Z,26.20
2023-06-19T07:28:07.556Z,26.80
2023-06-19T07:30:34.602Z,27.30
2023-06-19T07:33:01.670Z,27.60
2023-06-19T07:35:28.633Z,27.70
2023-06-19T07:37:55.632Z,27.60
2023-06-19T07:40:23.032Z,27.60
2023-06-19T07:42:50.298Z,27.70
2023-06-19T07:45:17.388Z,27.80
2023-06-19T07:47:44.460Z,27.60
2023-06-19T07:50:11.476Z,27.50
2023-06-19T07:52:38.327Z,27.70
2023-06-19T07:55:05.664Z,27.60
2023-06-19T07:57:32.620Z,27.70
2023-06-19T07:59:59.611Z,27.50
2023-06-19T08:02:26.680Z,27.10
2023-06-19T08:04:53.710Z,26.90
2023-06-19T08:07:20.668Z,26.50
2023-06-19T08:09:52.057Z,26.50
2023-06-19T08:12:27.717Z,26.30
2023-06-19T08:14:54.608Z,26.00
2023-06-19T08:17:21.561Z,25.80
2023-06-19T08:19:48.965Z,25.60
2023-06-19T08:22:15.834Z,25.70
2023-06-19T08:24:43.028Z,25.90
2023-06-19T08:27:10.144Z,26.20
2023-06-19T08:29:37.027Z,26.40
2023-06-19T08:32:04.203Z,26.40
2023-06-19T08:34:31.213Z,26.40
2023-06-19T08:36:58.512Z,26.30
2023-06-19T08:39:27.065Z,26.30
2023-06-19T08:41:56.198Z,26.30
2023-06-19T08:44:23.105Z,26.10
2023-06-19T08:46:50.037Z,26.00
2023-06-19T08:49:17.097Z,25.60
2023-06-19T08:51:44.017Z,25.30
2023-06-19T08:54:10.987Z,25.30
2023-06-19T08:56:39.077Z,25.70
2023-06-19T08:59:16.819Z,26.30
2023-06-19T09:01:56.713Z,26.40
2023-06-19T09:04:27.628Z,26.80
2023-06-19T09:06:58.114Z,27.30
2023-06-19T09:09:26.628Z,27.10
2023-06-19T09:12:19.616Z,27.10
2023-06-19T09:14:47.231Z,27.10
2023-06-19T09:17:23.285Z,27.40
2023-06-19T09:19:56.990Z,27.50
2023-06-19T09:22:26.153Z,26.80
2023-06-19T09:24:53.254Z,26.30
2023-06-19T09:27:21.070Z,26.30
2023-06-19T09:29:49.754Z,26.30
2023-06-19T09:32:21.648Z,26.30
2023-06-19T09:34:50.548Z,26.40
2023-06-19T09:37:24.147Z,26.60
2023-06-19T09:39:55.550Z,26.50
2023-06-19T09:42:33.170Z,26.20
2023-06-19T09:45:07.619Z,26.30
2023-06-19T09:47:47.153Z,26.30
2023-06-19T09:50:18.385Z,26.60
2023-06-19T09:52:45.927Z,27.00
2023-06-19T09:55:14.452Z,27.10
2023-06-19T09:57:42.819Z,27.30
2023-06-19T10:00:14.744Z,27.70
2023-06-19T10:02:43.482Z,28.20
2023-06-19T10:05:14.924Z,28.20
2023-06-19T10:07:48.252Z,28.00
2023-06-19T10:10:31.276Z,27.90
2023-06-19T10:13:11.894Z,27.70
2023-06-19T10:15:45.554Z,27.60
2023-06-19T10:18:17.468Z,27.60
2023-06-19T10:20:47.295Z,27.70
2023-06-19T10:23:26.078Z,27.50
2023-06-19T10:26:02.381Z,27.30
2023-06-19T10:28:33.042Z,27.80
2023-06-19T10:31:06.174Z,28.50
2023-06-19T10:33:35.470Z,28.10
2023-06-19T10:36:15.302Z,28.00
2023-06-19T10:38:42.503Z,27.90
2023-06-19T10:41:19.938Z,27.90
2023-06-19T10:44:19.267Z,27.50
2023-06-19T10:46:46.196Z,27.20
2023-06-19T10:49:14.691Z,27.00
2023-06-19T10:51:44.837Z,27.30
2023-06-19T10:54:12.036Z,27.40
2023-06-19T10:56:38.984Z,27.70
2023-06-19T10:59:12.981Z,27.90
2023-06-19T11:01:42.126Z,27.90
2023-06-19T11:04:11.437Z,28.00
2023-06-19T11:06:40.369Z,28.50
2023-06-19T11:09:08.202Z,28.60
2023-06-19T11:11:46.725Z,28.40
2023-06-19T11:14:14.996Z,28.20
2023-06-19T11:16:47.152Z,28.50
2023-06-19T11:19:19.330Z,29.10
2023-06-19T11:21:55.871Z,28.90
2023-06-19T11:24:24.893Z,28.50
2023-06-19T11:26:53.280Z,28.50
2023-06-19T11:29:30.174Z,28.60
2023-06-19T11:32:08.516Z,28.60
2023-06-19T11:34:38.127Z,28.40
2023-06-19T11:37:22.344Z,28.20
2023-06-19T11:39:50.520Z,28.00
2023-06-19T11:42:20.569Z,28.00
2023-06-19T11:44:57.827Z,27.90
2023-06-19T11:47:25.085Z,27.90
2023-06-19T11:49:52.624Z,27.90
2023-06-19T11:52:19.560Z,28.00
2023-06-19T11:54:46.547Z,28.50
2023-06-19T11:57:13.886Z,28.90
2023-06-19T11:59:42.066Z,29.40
2023-06-19T12:02:10.235Z,29.60
2023-06-19T12:04:37.522Z,29.50
2023-06-19T12:07:05.319Z,29.30
2023-06-19T12:09:35.712Z,29.40
2023-06-19T12:12:03.559Z,29.90
2023-06-19T12:14:30.770Z,29.80
2023-06-19T12:16:57.673Z,29.50
2023-06-19T12:19:24.603Z,29.70
2023-06-19T12:21:51.498Z,30.00
2023-06-19T12:24:18.540Z,30.10
2023-06-19T12:26:46.121Z,30.00
2023-06-19T12:29:13.068Z,29.90
2023-06-19T12:31:40.359Z,29.80
2023-06-19T12:36:37.351Z,29.50
2023-06-19T12:39:07.251Z,29.30
2023-06-19T12:41:34.101Z,29.20
2023-06-19T12:44:01.017Z,29.30
2023-06-19T12:46:28.000Z,29.50
2023-06-19T12:48:54.998Z,29.50
2023-06-19T12:51:21.898Z,29.50
2023-06-19T12:53:48.762Z,29.50
2023-06-19T12:56:15.671Z,29.50
2023-06-19T12:58:42.524Z,29.40
2023-06-19T13:01:09.578Z,29.10
2023-06-19T13:03:36.602Z,28.80
2023-06-19T13:06:03.681Z,28.90
2023-06-19T13:08:30.641Z,29.10
2023-06-19T13:10:57.777Z,28.90
2023-06-19T13:13:24.681Z,28.90
2023-06-19T13:15:51.649Z,29.10
2023-06-19T13:18:19.442Z,29.40
2023-06-19T13:20:49.158Z,29.50
2023-06-19T13:23:16.207Z,29.20
2023-06-19T13:25:43.141Z,28.90
2023-06-19T13:28:10.010Z,29.00
2023-06-19T13:30:36.971Z,29.20
2023-06-19T13:33:05.503Z,29.00
2023-06-19T13:35:32.724Z,29.20
2023-06-19T13:38:00.857Z,29.30
2023-06-19T13:40:27.736Z,29.40
2023-06-19T13:42:55.770Z,29.30
2023-06-19T13:45:22.766Z,29.30
2023-06-19T13:47:49.810Z,29.30
2023-06-19T13:50:19.402Z,29.20
2023-06-19T13:52:47.495Z,29.00
2023-06-19T13:55:20.056Z,29.00
2023-06-19T13:57:47.445Z,29.10
2023-06-19T14:00:14.969Z,29.10
2023-06-19T14:02:42.797Z,29.00
2023-06-19T14:05:10.687Z,29.10
2023-06-19T14:07:38.304Z,29.30
2023-06-19T14:10:06.765Z,29.30
2023-06-19T14:12:33.863Z,29.10
2023-06-19T14:15:00.881Z,29.10
2023-06-19T14:17:27.907Z,29.20
2023-06-19T14:19:56.638Z,29.10
2023-06-19T14:22:23.556Z,28.90
2023-06-19T14:24:51.101Z,28.80
2023-06-19T14:27:18.099Z,28.90
2023-06-19T14:29:45.565Z,29.00
2023-06-19T14:32:13.557Z,29.00
2023-06-19T14:34:40.555Z,29.00
2023-06-19T14:37:07.497Z,28.90
2023-06-19T14:39:34.462Z,28.80
2023-06-19T14:42:01.401Z,28.80
2023-06-19T14:44:28.263Z,28.80
2023-06-19T14:46:55.161Z,28.80
2023-06-19T14:49:22.330Z,28.70
2023-06-19T14:51:49.314Z,28.50
2023-06-19T14:54:18.729Z,28.40
2023-06-19T14:56:49.064Z,28.40
2023-06-19T14:59:16.055Z,28.40
2023-06-19T15:01:43.118Z,28.50
2023-06-19T15:04:10.270Z,28.60
2023-06-19T15:06:37.313Z,28.50
2023-06-19T15:09:05.490Z,28.40
2023-06-19T15:11:33.708Z,28.30
2023-06-19T15:14:00.622Z,28.30
2023-06-19T15:16:27.712Z,28.30
2023-06-19T15:18:55.620Z,28.40
2023-06-19T15:21:22.647Z,28.50
2023-06-19T15:23:50.356Z,28.50
2023-06-19T15:26:17.342Z,28.40
2023-06-19T15:28:45.122Z,28.30
2023-06-19T15:31:12.273Z,28.20
2023-06-19T15:33:39.405Z,28.30
2023-06-19T15:36:06.806Z,28.20
2023-06-19T15:38:34.087Z,28.10
2023-06-19T15:41:01.044Z,27.90
2023-06-19T15:43:29.980Z,27.80
2023-06-19T15:45:57.357Z,27.70
2023-06-19T15:48:24.378Z,27.80
2023-06-19T15:50:51.448Z,27.90
2023-06-19T15:53:18.324Z,28.00
2023-06-19T15:55:45.246Z,28.00
2023-06-19T15:58:12.697Z,27.90
2023-06-19T16:00:39.864Z,27.80
2023-06-19T16:03:08.731Z,27.80
2023-06-19T16:05:36.029Z,27.90
2023-06-19T16:08:02.965Z,27.90
2023-06-19T16:10:29.892Z,28.00
2023-06-19T16:12:56.807Z,27.90
2023-06-19T16:15:29.008Z,27.90
2023-06-19T16:17:56.579Z,27.90
2023-06-19T16:20:24.394Z,27.90
2023-06-19T16:22:52.186Z,27.90
2023-06-19T16:25:19.338Z,27.90
2023-06-19T16:27:46.291Z,27.80
2023-06-19T16:30:13.596Z,27.70
2023-06-19T16:32:40.685Z,27.60
2023-06-19T16:35:08.384Z,27.60
2023-06-19T16:37:35.409Z,27.70
2023-06-19T16:40:02.508Z,27.70
2023-06-19T16:42:29.419Z,27.60
2023-06-19T16:44:58.151Z,27.60
2023-06-19T16:47:25.262Z,27.60
2023-06-19T16:49:52.202Z,27.60
2023-06-19T16:52:19.175Z,27.60
2023-06-19T16:54:46.051Z,27.60
2023-06-19T16:57:15.289Z,27.60
2023-06-19T16:59:42.384Z,27.60
2023-06-19T17:02:09.404Z,27.60
2023-06-19T17:04:36.694Z,27.50
2023-06-19T17:07:03.781Z,27.50
2023-06-19T17:09:30.755Z,27.60
2023-06-19T17:11:57.746Z,27.60
2023-06-19T17:14:25.138Z,27.50
2023-06-19T17:16:53.004Z,27.40
2023-06-19T17:19:19.910Z,27.30
2023-06-19T17:21:46.958Z,27.30
2023-06-19T17:24:16.516Z,27.20
2023-06-19T17:26:44.800Z,27.10
2023-06-19T17:29:11.885Z,27.00
2023-06-19T17:31:39.020Z,27.00
2023-06-19T17:34:06.228Z,26.90
2023-06-19T17:36:33.229Z,27.00
2023-06-19T17:39:00.345Z,26.90
2023-06-19T17:41:27.333Z,26.90
2023-06-19T17:43:54.207Z,26.90
2023-06-19T17:46:21.951Z,26.80
2023-06-19T17:48:49.085Z,26.80
2023-06-19T17:51:16.002Z,26.70
2023-06-19T17:53:43.073Z,26.70
2023-06-19T17:56:10.037Z,26.70
2023-06-19T17:58:37.060Z,26.60
2023-06-19T18:01:04.068Z,26.60
2023-06-19T18:03:31.789Z,26.50
2023-06-19T18:05:58.840Z,26.50
2023-06-19T18:08:25.845Z,26.40
2023-06-19T18:10:52.751Z,26.30
2023-06-19T18:13:19.729Z,26.30
2023-06-19T18:15:52.984Z,26.20
2023-06-19T18:18:29.683Z,26.20
2023-06-19T18:20:56.628Z,26.10
2023-06-19T18:23:24.134Z,26.00
2023-06-19T18:25:52.334Z,26.00
2023-06-19T18:28:19.265Z,25.90
2023-06-19T18:30:46.341Z,25.90
2023-06-19T18:33:13.439Z,25.80
2023-06-19T18:35:40.355Z,25.70
2023-06-19T18:38:07.244Z,25.60
2023-06-19T18:40:34.196Z,25.50
2023-06-19T18:43:01.163Z,25.50
2023-06-19T18:45:28.014Z,25.40
2023-06-19T18:47:54.896Z,25.30
2023-06-19T18:50:22.100Z,25.30
2023-06-19T18:52:49.050Z,25.30
2023-06-19T18:55:16.167Z,25.20
2023-06-19T18:57:43.233Z,25.20
2023-06-19T19:00:10.853Z,25.10
2023-06-19T19:02:37.819Z,25.10
2023-06-19T19:05:05.165Z,25.10
2023-06-19T19:07:32.049Z,25.00
2023-06-19T19:09:59.026Z,25.00
2023-06-19T19:12:25.988Z,25.00
2023-06-19T19:14:52.918Z,24.90
2023-06-19T19:17:19.869Z,24.90
2023-06-19T19:19:46.967Z,24.90
2023-06-19T19:22:13.898Z,24.80
2023-06-19T19:24:41.396Z,24.70
2023-06-19T19:27:08.289Z,24.60
2023-06-19T19:29:35.176Z,24.60
2023-06-19T19:32:02.235Z,24.50
2023-06-19T19:34:29.184Z,24.40
2023-06-19T19:36:57.544Z,24.40
2023-06-19T19:39:24.555Z,24.40
2023-06-19T19:41:51.503Z,24.30
2023-06-19T19:44:18.686Z,24.30
2023-06-19T19:46:45.698Z,24.30
2023-06-19T19:49:13.037Z,24.20
2023-06-19T19:51:39.992Z,24.20
2023-06-19T19:54:07.188Z,24.20
2023-06-19T19:56:34.148Z,24.10
2023-06-19T19:59:02.074Z,24.00
2023-06-19T20:01:29.122Z,24.00
2023-06-19T20:03:56.372Z,23.90
2023-06-19T20:06:23.440Z,23.90
2023-06-19T20:08:50.316Z,23.90
2023-06-19T20:11:17.278Z,23.90
2023-06-19T20:13:45.758Z,23.90
2023-06-19T20:16:12.761Z,23.80
2023-06-19T20:18:39.963Z,23.80
2023-06-19T20:21:06.894Z,23.80
2023-06-19T20:23:33.983Z,23.70
2023-06-19T20:26:01.286Z,23.70
2023-06-19T20:28:28.210Z,23.70
2023-06-19T20:30:55.489Z,23.60
2023-06-19T20:33:23.318Z,23.50
2023-06-19T20:35:51.225Z,23.50
2023-06-19T20:38:21.215Z,23.40
2023-06-19T20:40:52.038Z,23.40
2023-06-19T20:43:19.026Z,23.30
2023-06-19T20:45:45.928Z,23.40
2023-06-19T20:48:12.876Z,23.30
2023-06-19T20:50:40.082Z,23.20
2023-06-19T20:53:07.066Z,23.20
2023-06-19T20:55:34.004Z,23.20
2023-06-19T20:58:05.823Z,23.10
2023-06-19T21:00:33.476Z,23.10
2023-06-19T21:03:01.114Z,23.10
2023-06-19T21:05:28.264Z,23.00
2023-06-19T21:07:55.203Z,22.90
2023-06-19T21:10:23.789Z,22.90
2023-06-19T21:12:51.074Z,22.80
2023-06-19T21:15:17.983Z,22.80
2023-06-19T21:17:44.940Z,22.80
2023-06-19T21:20:12.101Z,22.70
2023-06-19T21:22:40.104Z,22.60
2023-06-19T21:25:07.640Z,22.60
2023-06-19T21:27:37.560Z,22.50
2023-06-19T21:30:05.801Z,22.50
2023-06-19T21:32:33.078Z,22.40
2023-06-19T21:35:00.185Z,22.40
2023-06-19T21:37:27.096Z,22.30
2023-06-19T21:39:54.006Z,22.30
2023-06-19T21:42:20.917Z,22.20
2023-06-19T21:44:47.878Z,22.20
2023-06-19T21:47:14.820Z,22.10
2023-06-19T21:49:41.783Z,22.10
2023-06-19T21:52:08.816Z,22.10
2023-06-19T21:54:35.861Z,22.10
2023-06-19T21:57:02.996Z,22.10
2023-06-19T21:59:30.039Z,22.10
2023-06-19T22:01:57.209Z,22.10
2023-06-19T22:04:24.178Z,22.10
2023-06-19T22:06:51.195Z,22.10
2023-06-19T22:09:18.243Z,22.00
2023-06-19T22:11:45.116Z,22.00
2023-06-19T22:14:12.126Z,22.00
2023-06-19T22:16:39.037Z,22.00
2023-06-19T22:19:05.993Z,22.00
2023-06-19T22:21:33.002Z,21.90
2023-06-19T22:23:59.896Z,21.90
2023-06-19T22:26:26.864Z,21.90
2023-06-19T22:28:53.811Z,21.90
2023-06-19T22:31:20.857Z,21.90
2023-06-19T22:33:47.806Z,21.80
2023-06-19T22:36:15.817Z,21.80
2023-06-19T22:38:42.737Z,21.80
2023-06-19T22:41:09.746Z,21.80
2023-06-19T22:43:36.734Z,21.80
2023-06-19T22:46:05.096Z,21.70
2023-06-19T22:48:32.156Z,21.60
2023-06-19T22:50:59.394Z,21.60
2023-06-19T22:53:26.284Z,21.50
2023-06-19T22:55:53.189Z,21.50
2023-06-19T22:58:20.165Z,21.40
2023-06-19T23:00:47.793Z,21.40
2023-06-19T23:03:15.187Z,21.40
2023-06-19T23:05:42.183Z,21.40
2023-06-19T23:08:09.062Z,21.40
2023-06-19T23:10:35.955Z,21.40
2023-06-19T23:13:02.873Z,21.40
2023-06-19T23:15:30.974Z,21.40
2023-06-19T23:17:57.932Z,21.40
2023-06-19T23:20:24.809Z,21.40
2023-06-19T23:22:51.654Z,21.30
2023-06-19T23:25:19.596Z,21.40
2023-06-19T23:27:46.469Z,21.40
2023-06-19T23:30:13.659Z,21.30
2023-06-19T23:32:41.407Z,21.30
2023-06-19T23:35:08.986Z,21.30
2023-06-19T23:37:35.903Z,21.30
2023-06-19T23:40:05.555Z,21.30
2023-06-19T23:42:32.455Z,21.30
2023-06-19T23:44:59.423Z,21.40
2023-06-19T23:47:26.473Z,21.40
2023-06-19T23:49:53.339Z,21.40
2023-06-19T23:52:29.744Z,21.40
2023-06-19T23:55:01.251Z,21.40
2023-06-19T23:57:28.152Z,21.40
2023-06-19T23:59:55.071Z,21.40
